Карточка аэропорта UAKK

Внимание!
Информация на этой странице в стадии наполнения.
Если вы не увидели какой-то информации, или заметили неточность - пожалуйста сообщите нам!
Спасибо!
Команда RU-STAFF
Название аэропортаКараганда
Название аэропорта (англ.)Karaganda
Превышение1768 ft. (538.9 m.)
Координаты49°40.302', 73°20.118'
Высота перехода10000
Эшелон переходаby ATC
Коды ответчика0630-0637, 7220-7227
Зона ОрВДНур-Султан РПИ (UACN)
Данные METARUAKK 021800Z 07005MPS CAVOK M15/M18 Q1018 NOSIG RMK QFE716/0955
Проноз погоды (TAF)UAKK 021704Z 0218/0318 08007MPS 9999 SCT020 BKN100 TXM07/0309Z TNM18/0223Z TEMPO 0220/0306 3100 -SN DRSN BKN007 TEMPO 0306/0315 3100 -SN DRSN BKN011
NOTAMshow/hide NOTAM
AWOS   TABLE

Информация о ВПП

ВПП Длина ВПП (м.) Покрытие Курс ВПП Частота ILS
233601Железобетон230111.7
053601Железобетон50109.9

Диспетчерские позиции




Спутниковое изображение